Time;durP1;ratioP1;P1;durP2;ratioP2;P2;SDS_P1;SDS_P2;PMS_P1;PMS_P2;Temp;Humidity;BMP_temperature;BMP_pressure;BME280_temperature;BME280_humidity;BME280_pressure;Samples;Min_cycle;Max_cycle;Signal;HPM_P1;HPM_P2
2022/03/02 00:02:42;;;;;;;;;;;;;;;17.32;25.29;96405.41;10443979;28;2010;-56
2022/03/02 00:07:43;;;;;;;;;;;;;;;17.31;25.39;96418.75;10440751;28;1889;-54
2022/03/02 00:12:43;;;;;;;;;;;;;;;17.31;25.37;96403.78;10425003;28;1751;-55
2022/03/02 00:17:43;;;;;;;;;;;;;;;17.29;25.38;96400.63;10442067;28;1910;-55
2022/03/02 00:22:44;;;;;;;;;;;;;;;17.32;25.24;96388.88;10421815;28;1788;-55
2022/03/02 00:27:44;;;;;;;;;;;;;;;17.31;25.30;96382.06;10424526;28;1803;-54
2022/03/02 00:32:44;;;;;;;;;;;;;;;17.31;25.31;96376.81;10436985;28;1843;-54
2022/03/02 00:37:45;;;;;;;;;;;;;;;17.30;25.38;96378.63;10424315;28;1970;-54
2022/03/02 00:42:46;;;;;;;;;;;;;;;17.32;25.24;96366.09;10424633;28;1886;-52
2022/03/02 00:47:46;;;;;;;;;;;;;;;17.38;25.20;96362.53;10425250;28;1842;-56
2022/03/02 00:52:47;;;;;;;;;;;;;;;17.34;25.25;96361.41;10437597;28;2234;-54
2022/03/02 00:57:47;;;;;;;;;;;;;;;17.30;25.32;96362.13;10420255;28;1918;-55
2022/03/02 01:02:48;;;;;;;;;;;;;;;17.36;25.29;96351.47;10423222;28;1723;-55
2022/03/02 01:07:48;;;;;;;;;;;;;;;17.35;25.15;96343.88;10420125;28;1944;-54
2022/03/02 01:12:48;;;;;;;;;;;;;;;17.34;25.27;96339.66;10422875;28;1784;-56
2022/03/02 01:17:49;;;;;;;;;;;;;;;17.36;25.22;96333.13;10420960;28;1955;-51
2022/03/02 01:22:49;;;;;;;;;;;;;;;17.34;25.17;96337.81;10421910;28;1892;-51
2022/03/02 01:27:49;;;;;;;;;;;;;;;17.36;25.02;96342.81;10439850;28;1827;-56
2022/03/02 01:32:50;;;;;;;;;;;;;;;17.30;25.24;96357.66;10429543;28;1876;-55
2022/03/02 01:37:50;;;;;;;;;;;;;;;17.38;25.00;96346.78;10439728;28;1914;-55
2022/03/02 01:42:51;;;;;;;;;;;;;;;17.36;25.17;96332.34;10444328;28;1807;-53
2022/03/02 01:47:52;;;;;;;;;;;;;;;17.37;25.06;96328.69;10445503;28;2004;-55
2022/03/02 01:52:53;;;;;;;;;;;;;;;17.33;25.09;96317.09;10449702;28;1892;-56
2022/03/02 01:57:55;;;;;;;;;;;;;;;17.37;25.05;96311.13;10444489;28;1908;-55
2022/03/02 02:02:55;;;;;;;;;;;;;;;17.34;25.02;96319.47;10430674;28;1932;-54
2022/03/02 02:07:55;;;;;;;;;;;;;;;17.31;24.96;96314.69;10441473;28;1952;-55
2022/03/02 02:12:56;;;;;;;;;;;;;;;17.34;25.02;96303.75;10447884;28;2011;-54
2022/03/02 02:17:56;;;;;;;;;;;;;;;17.35;24.96;96296.69;10449457;28;1964;-52
2022/03/02 02:22:57;;;;;;;;;;;;;;;17.32;25.03;96294.53;10446385;28;2386;-55
2022/03/02 02:27:59;;;;;;;;;;;;;;;17.34;25.08;96288.03;10447539;28;1944;-53
2022/03/02 02:33:00;;;;;;;;;;;;;;;17.34;25.00;96295.09;10429756;28;1983;-53
2022/03/02 02:38:00;;;;;;;;;;;;;;;17.29;25.01;96293.19;10448399;28;2074;-53
2022/03/02 02:43:00;;;;;;;;;;;;;;;17.33;24.99;96293.53;10428084;28;1926;-51
2022/03/02 02:48:01;;;;;;;;;;;;;;;17.32;25.10;96284.06;10443550;28;2173;-53
2022/03/02 02:53:02;;;;;;;;;;;;;;;17.33;24.94;96275.94;10433045;28;2274;-55
2022/03/02 02:58:02;;;;;;;;;;;;;;;17.30;25.00;96270.41;10444081;28;1944;-51
2022/03/02 03:03:03;;;;;;;;;;;;;;;17.31;25.10;96262.31;10444036;28;2017;-51
2022/03/02 03:08:05;;;;;;;;;;;;;;;17.30;25.04;96252.06;10444558;28;1947;-56
2022/03/02 03:13:06;;;;;;;;;;;;;;;17.32;24.99;96257.84;10428236;28;2334;-51
2022/03/02 03:18:06;;;;;;;;;;;;;;;17.35;24.98;96252.91;10424590;28;2278;-53
2022/03/02 03:23:07;;;;;;;;;;;;;;;17.31;25.02;96267.53;10444960;28;1885;-51
2022/03/02 03:28:07;;;;;;;;;;;;;;;17.30;24.95;96281.69;10427372;28;1993;-53
2022/03/02 03:33:08;;;;;;;;;;;;;;;17.36;24.98;96270.25;10425249;28;2018;-54
2022/03/02 03:38:08;;;;;;;;;;;;;;;17.31;24.87;96262.31;10442156;28;1921;-55
2022/03/02 03:43:08;;;;;;;;;;;;;;;17.30;25.04;96260.72;10425786;28;2342;-56
2022/03/02 03:48:09;;;;;;;;;;;;;;;17.33;24.87;96262.09;10440816;28;2070;-54
2022/03/02 03:53:11;;;;;;;;;;;;;;;17.32;24.87;96263.09;10444580;28;1979;-55
2022/03/02 03:58:11;;;;;;;;;;;;;;;17.30;24.94;96260.72;10443232;28;1980;-54
2022/03/02 04:03:12;;;;;;;;;;;;;;;17.33;24.87;96247.13;10442677;28;1924;-52
2022/03/02 04:08:12;;;;;;;;;;;;;;;17.35;24.83;96252.91;10438607;28;2007;-51
2022/03/02 04:13:12;;;;;;;;;;;;;;;17.35;24.78;96252.91;10447341;28;1912;-55
2022/03/02 04:18:13;;;;;;;;;;;;;;;17.31;24.93;96245.81;10442274;28;2064;-55
2022/03/02 04:23:13;;;;;;;;;;;;;;;17.30;24.97;96238.97;10442383;28;1849;-54
2022/03/02 04:28:14;;;;;;;;;;;;;;;17.30;24.85;96234.53;10423417;28;1924;-54
2022/03/02 04:33:15;;;;;;;;;;;;;;;17.32;24.82;96226.41;10441305;28;1935;-54
2022/03/02 04:38:15;;;;;;;;;;;;;;;17.34;24.84;96212.03;10443616;28;1976;-52
2022/03/02 04:43:17;;;;;;;;;;;;;;;17.31;24.89;96194.16;10440976;28;2012;-52
2022/03/02 04:48:18;;;;;;;;;;;;;;;17.32;24.74;96192.34;10442135;28;1952;-53
2022/03/02 04:53:18;;;;;;;;;;;;;;;17.32;24.72;96201.00;10437605;28;2006;-54
2022/03/02 04:58:19;;;;;;;;;;;;;;;17.33;24.71;96204.44;10441303;28;1976;-53
2022/03/02 05:03:19;;;;;;;;;;;;;;;17.34;24.77;96203.38;10438498;28;1963;-50
2022/03/02 05:08:20;;;;;;;;;;;;;;;17.29;24.81;96190.22;10436986;28;2019;-55
2022/03/02 05:13:20;;;;;;;;;;;;;;;17.35;24.76;96195.28;10442586;28;2007;-53
2022/03/02 05:18:21;;;;;;;;;;;;;;;17.34;24.72;96190.28;10445867;28;1993;-54
2022/03/02 05:23:22;;;;;;;;;;;;;;;17.31;24.82;96201.25;10449727;28;1865;-53
2022/03/02 05:28:23;;;;;;;;;;;;;;;17.32;24.77;96203.63;10447851;28;2011;-53
2022/03/02 05:33:24;;;;;;;;;;;;;;;17.28;24.78;96199.91;10427221;28;1928;-52
2022/03/02 05:38:27;;;;;;;;;;;;;;;17.30;24.73;96203.09;10430822;28;1942;-53
2022/03/02 05:43:28;;;;;;;;;;;;;;;17.31;24.77;96202.03;10429252;28;1934;-56
2022/03/02 05:48:29;;;;;;;;;;;;;;;17.31;24.80;96203.88;10454059;22;2155;-45
2022/03/02 05:53:31;;;;;;;;;;;;;;;17.30;24.67;96197.03;10458100;28;2024;-43
2022/03/02 05:58:31;;;;;;;;;;;;;;;17.28;24.81;96194.66;10449451;28;1988;-43
2022/03/02 06:03:32;;;;;;;;;;;;;;;17.27;24.86;96198.31;10451296;28;1877;-40
2022/03/02 06:08:33;;;;;;;;;;;;;;;17.30;24.81;96187.38;10451404;28;1972;-41
2022/03/02 06:13:34;;;;;;;;;;;;;;;17.29;24.75;96177.13;10432315;28;2023;-44
2022/03/02 06:18:36;;;;;;;;;;;;;;;17.32;24.74;96182.66;10429797;28;1997;-46
2022/03/02 06:23:36;;;;;;;;;;;;;;;17.28;24.78;96178.16;10429832;28;2031;-48
2022/03/02 06:28:37;;;;;;;;;;;;;;;17.25;24.76;96176.81;10428424;28;2033;-46
2022/03/02 06:33:38;;;;;;;;;;;;;;;17.25;24.79;96179.41;10431910;28;1910;-46
2022/03/02 06:38:39;;;;;;;;;;;;;;;17.27;24.67;96187.84;10427169;28;1986;-46
2022/03/02 06:43:46;;;;;;;;;;;;;;;17.29;24.65;96191.00;10446529;28;1909;-45
2022/03/02 06:48:55;;;;;;;;;;;;;;;17.26;24.58;96198.56;10427012;28;1965;-42
2022/03/02 06:53:56;;;;;;;;;;;;;;;17.25;24.73;96195.13;10447014;28;1973;-40
2022/03/02 06:58:56;;;;;;;;;;;;;;;17.26;24.95;96199.34;10410407;28;1802;-42
2022/03/02 07:04:01;;;;;;;;;;;;;;;17.28;24.74;96192.06;10413331;28;2997;-43
2022/03/02 07:09:02;;;;;;;;;;;;;;;17.28;24.66;96199.91;10445386;28;2129;-41
2022/03/02 07:14:02;;;;;;;;;;;;;;;17.27;24.65;96206.16;10429353;28;1961;-45
2022/03/02 07:19:03;;;;;;;;;;;;;;;17.26;24.81;96201.97;10445611;28;2009;-45
2022/03/02 07:24:10;;;;;;;;;;;;;;;17.25;24.74;96197.00;10440783;28;1791;-42
2022/03/02 07:29:10;;;;;;;;;;;;;;;17.30;24.57;96194.41;10426529;28;1998;-46
2022/03/02 07:34:11;;;;;;;;;;;;;;;17.27;24.72;96193.06;10445643;28;2001;-45
2022/03/02 07:39:12;;;;;;;;;;;;;;;17.27;24.68;96190.44;10443881;28;1797;-44
2022/03/02 07:44:12;;;;;;;;;;;;;;;17.26;24.77;96180.22;10445939;28;1833;-45
2022/03/02 07:49:13;;;;;;;;;;;;;;;17.27;24.71;96174.72;10445206;28;1813;-45
2022/03/02 07:54:15;;;;;;;;;;;;;;;17.28;24.67;96176.34;10443487;28;1894;-45
2022/03/02 07:59:15;;;;;;;;;;;;;;;17.32;24.60;96172.19;10426279;28;1841;-44
2022/03/02 08:04:15;;;;;;;;;;;;;;;17.29;24.81;96175.28;10444622;28;1844;-44
2022/03/02 08:09:16;;;;;;;;;;;;;;;17.30;24.79;96166.41;10425497;28;1969;-43
2022/03/02 08:14:23;;;;;;;;;;;;;;;17.31;24.65;96172.44;10444259;28;1905;-48
2022/03/02 08:19:24;;;;;;;;;;;;;;;17.29;24.59;96169.28;10424199;28;1901;-46
2022/03/02 08:24:25;;;;;;;;;;;;;;;17.28;24.69;96170.28;10426753;28;1892;-43
2022/03/02 08:29:29;;;;;;;;;;;;;;;17.28;24.88;96173.72;10426321;28;1805;-44
2022/03/02 08:34:30;;;;;;;;;;;;;;;17.35;24.59;96169.06;10426413;28;1969;-41
2022/03/02 08:39:30;;;;;;;;;;;;;;;17.31;24.81;96160.09;10444194;28;1900;-48
2022/03/02 08:44:31;;;;;;;;;;;;;;;17.27;24.91;96156.38;10443679;28;1850;-46
2022/03/02 08:49:32;;;;;;;;;;;;;;;17.28;24.86;96154.56;10443059;28;1912;-42
2022/03/02 08:54:34;;;;;;;;;;;;;;;17.30;24.86;96153.31;10443201;28;1969;-50
2022/03/02 08:59:34;;;;;;;;;;;;;;;17.29;24.80;96143.06;10425036;28;1827;-46
2022/03/02 09:04:35;;;;;;;;;;;;;;;17.24;25.00;96146.41;10426054;28;1801;-47
2022/03/02 09:09:36;;;;;;;;;;;;;;;17.28;24.91;96136.22;10442014;28;1848;-45
2022/03/02 09:14:38;;;;;;;;;;;;;;;17.26;24.91;96139.09;10424804;28;1969;-45
2022/03/02 09:19:39;;;;;;;;;;;;;;;17.25;24.96;96127.03;10425135;28;1827;-51
2022/03/02 09:24:39;;;;;;;;;;;;;;;17.24;24.96;96129.91;10442425;28;1797;-45
2022/03/02 09:29:42;;;;;;;;;;;;;;;17.23;25.02;96125.72;10435082;28;1848;-49
2022/03/02 09:34:45;;;;;;;;;;;;;;;17.23;25.07;96121.22;10442420;28;1902;-43
2022/03/02 09:39:46;;;;;;;;;;;;;;;17.25;25.13;96134.13;10439563;28;1854;-48
2022/03/02 09:44:48;;;;;;;;;;;;;;;17.26;25.08;96131.25;10442033;28;1912;-50
2022/03/02 09:49:49;;;;;;;;;;;;;;;17.21;25.04;96125.94;10421399;28;1801;-45
2022/03/02 09:54:53;;;;;;;;;;;;;;;17.23;25.16;96131.72;10424283;28;1906;-45
2022/03/02 09:59:54;;;;;;;;;;;;;;;17.25;25.04;96126.25;10441682;28;1789;-46
2022/03/02 10:04:55;;;;;;;;;;;;;;;17.24;25.05;96132.50;10427663;28;1801;-46
2022/03/02 10:10:03;;;;;;;;;;;;;;;17.28;25.13;96131.78;10414412;28;1928;-44
2022/03/02 10:15:05;;;;;;;;;;;;;;;17.26;25.09;96120.75;10430619;28;1951;-42
2022/03/02 10:20:06;;;;;;;;;;;;;;;17.26;25.05;96120.75;10447791;28;1860;-47
2022/03/02 10:25:08;;;;;;;;;;;;;;;17.25;25.17;96116.53;10429884;28;1742;-43
2022/03/02 10:30:09;;;;;;;;;;;;;;;17.26;25.18;96119.97;10429799;28;1851;-47
2022/03/02 10:35:10;;;;;;;;;;;;;;;17.18;25.37;96118.56;10428533;28;2390;-44
2022/03/02 10:40:16;;;;;;;;;;;;;;;17.18;25.42;96121.19;10448255;28;1797;-48
2022/03/02 10:45:16;;;;;;;;;;;;;;;17.23;25.35;96115.22;10429473;28;2011;-42
2022/03/02 10:50:16;;;;;;;;;;;;;;;17.20;25.22;96115.69;10444529;28;1812;-45
2022/03/02 10:55:17;;;;;;;;;;;;;;;17.17;25.43;96113.53;10427602;28;1910;-47
2022/03/02 11:00:18;;;;;;;;;;;;;;;17.18;25.51;96105.47;10442335;28;1935;-50
2022/03/02 11:05:18;;;;;;;;;;;;;;;17.18;25.46;96095.00;10425672;28;1916;-42
2022/03/02 11:10:20;;;;;;;;;;;;;;;17.18;25.54;96086.34;10425168;28;1912;-44
2022/03/02 11:15:21;;;;;;;;;;;;;;;17.20;25.29;96082.44;10443978;28;1973;-46
2022/03/02 11:20:22;;;;;;;;;;;;;;;17.21;25.34;96070.13;10442103;28;1825;-45
2022/03/02 11:25:42;;;;;;;;;;;;;;;17.21;25.28;96072.75;10425725;28;2046;-47
2022/03/02 11:30:53;;;;;;;;;;;;;;;17.23;25.34;96066.22;10442851;28;1763;-48
2022/03/02 11:35:59;;;;;;;;;;;;;;;17.23;25.49;96065.44;10443030;28;1902;-46
2022/03/02 11:40:59;;;;;;;;;;;;;;;17.23;25.46;96066.22;10420504;28;1767;-45
2022/03/02 11:46:01;;;;;;;;;;;;;;;17.25;25.42;96066.75;10403587;28;1150981;-44
2022/03/02 11:51:08;;;;;;;;;;;;;;;17.24;25.41;96062.56;10457044;22;2015;-51
2022/03/02 11:56:09;;;;;;;;;;;;;;;17.24;25.48;96049.47;10406193;28;2060;-53
2022/03/02 12:01:10;;;;;;;;;;;;;;;17.19;25.49;96049.41;10408418;28;1854;-53
2022/03/02 12:06:13;;;;;;;;;;;;;;;17.20;25.67;96040.53;10404502;28;1807;-51
2022/03/02 12:11:18;;;;;;;;;;;;;;;17.23;25.39;96034.78;10412397;28;2199;-54
2022/03/02 12:16:34;;;;;;;;;;;;;;;17.20;25.57;96016.16;10400129;28;1977;-54
2022/03/02 12:21:35;;;;;;;;;;;;;;;17.19;25.43;96028.44;10400648;28;1849;-53
2022/03/02 12:26:38;;;;;;;;;;;;;;;17.17;25.42;96017.44;10398363;28;1865;-52
2022/03/02 12:31:38;;;;;;;;;;;;;;;17.17;25.41;96009.56;10394398;28;2010;-55
2022/03/02 12:36:39;;;;;;;;;;;;;;;17.19;25.34;96001.47;10412368;28;1961;-54
2022/03/02 12:41:39;;;;;;;;;;;;;;;17.17;25.42;96001.72;10399297;28;1909;-56
2022/03/02 12:46:39;;;;;;;;;;;;;;;17.16;25.42;95992.28;10418289;28;1807;-53
2022/03/02 12:51:40;;;;;;;;;;;;;;;17.15;25.36;95995.13;10397294;28;1565;-55
2022/03/02 12:56:40;;;;;;;;;;;;;;;17.19;25.46;96001.47;10401032;28;2317;-54
2022/03/02 13:01:41;;;;;;;;;;;;;;;17.18;25.42;96003.31;10399366;28;2350;-56
2022/03/02 13:06:43;;;;;;;;;;;;;;;17.18;25.53;95994.66;10400241;28;2179;-53
2022/03/02 13:11:43;;;;;;;;;;;;;;;17.20;25.42;95995.19;10382446;28;2166;-55
2022/03/02 13:16:45;;;;;;;;;;;;;;;17.19;25.35;95993.63;10396779;28;2011;-53
2022/03/02 13:22:06;;;;;;;;;;;;;;;17.24;25.40;95996.28;10398941;28;2116;-54
2022/03/02 13:27:11;;;;;;;;;;;;;;;17.19;25.50;95993.63;10394757;28;1903;-53
2022/03/02 13:32:11;;;;;;;;;;;;;;;17.26;25.38;95996.81;10398286;28;1813;-52
2022/03/02 13:37:11;;;;;;;;;;;;;;;17.19;25.45;95994.41;10405336;28;1886;-52
2022/03/02 13:42:19;;;;;;;;;;;;;;;17.22;25.46;95987.88;10405044;28;1782;-54
2022/03/02 13:47:24;;;;;;;;;;;;;;;17.20;25.50;95993.38;10405389;28;1859;-51
2022/03/02 13:52:28;;;;;;;;;;;;;;;17.19;25.43;95986.53;10403180;28;1722;-51
2022/03/02 13:57:29;;;;;;;;;;;;;;;17.20;25.55;95988.13;10413241;28;2328;-54
2022/03/02 14:02:36;;;;;;;;;;;;;;;17.17;25.58;95986.00;10407428;28;1866;-58
2022/03/02 14:07:37;;;;;;;;;;;;;;;17.23;25.34;95982.38;10389436;28;2116;-53
2022/03/02 14:12:49;;;;;;;;;;;;;;;17.23;25.38;95987.63;10407567;28;1839;-53
2022/03/02 14:17:49;;;;;;;;;;;;;;;17.20;25.40;95977.66;10406527;28;1954;-52
2022/03/02 14:22:59;;;;;;;;;;;;;;;17.22;25.40;95970.34;10405895;28;2090;-52
2022/03/02 14:28:01;;;;;;;;;;;;;;;17.21;25.36;95960.88;10400416;28;1712;-55
2022/03/02 14:33:09;;;;;;;;;;;;;;;17.23;25.36;95961.44;10401009;28;1843;-56
2022/03/02 14:38:10;;;;;;;;;;;;;;;17.19;25.40;95965.59;10403273;28;1905;-52
2022/03/02 14:43:11;;;;;;;;;;;;;;;17.21;25.55;95960.13;10399397;28;1916;-54
2022/03/02 14:48:12;;;;;;;;;;;;;;;17.21;25.46;95960.88;10406113;28;1878;-55
2022/03/02 14:53:16;;;;;;;;;;;;;;;17.20;25.49;95956.69;10400167;28;1847;-51
2022/03/02 14:58:37;;;;;;;;;;;;;;;17.20;25.50;95963.75;10405670;28;2304;-52
2022/03/02 15:03:43;;;;;;;;;;;;;;;17.24;25.35;95960.41;10400916;28;1952;-54
2022/03/02 15:08:45;;;;;;;;;;;;;;;17.20;25.52;95964.56;10403185;28;1885;-55
2022/03/02 15:19:07;;;;;;;;;;;;;;;17.23;25.39;95953.56;10402167;28;1798;-54
2022/03/02 15:24:08;;;;;;;;;;;;;;;17.20;25.44;95948.84;10406905;28;1836;-55
2022/03/02 15:29:12;;;;;;;;;;;;;;;17.19;25.57;95939.38;10404017;28;1764;-52
2022/03/02 15:34:19;;;;;;;;;;;;;;;17.15;25.61;95940.13;10404648;28;1910;-51
2022/03/02 15:39:30;;;;;;;;;;;;;;;17.15;25.55;95932.25;10393114;28;1810;-56
2022/03/02 15:44:30;;;;;;;;;;;;;;;17.18;25.38;95937.81;10406213;28;1807;-52
2022/03/02 15:49:43;;;;;;;;;;;;;;;17.17;25.49;95930.97;10403355;28;1853;-55
2022/03/02 15:54:50;;;;;;;;;;;;;;;17.18;25.41;95934.41;10403231;28;1977;-53
2022/03/02 15:59:51;;;;;;;;;;;;;;;17.17;25.46;95922.31;10400946;28;1693;-53
2022/03/02 16:05:00;;;;;;;;;;;;;;;17.14;25.50;95918.41;10403552;28;1871;-54
2022/03/02 16:10:01;;;;;;;;;;;;;;;17.15;25.59;95925.19;10393364;28;1856;-51
2022/03/02 16:15:01;;;;;;;;;;;;;;;17.18;25.38;95922.09;10401579;28;1910;-55
2022/03/02 16:20:15;;;;;;;;;;;;;;;17.17;25.54;95914.47;10398338;28;1797;-53
2022/03/02 16:25:23;;;;;;;;;;;;;;;17.16;25.58;95918.94;10414046;28;1823;-53
2022/03/02 16:30:26;;;;;;;;;;;;;;;17.18;25.50;95922.09;10394048;28;1878;-52
2022/03/02 16:35:27;;;;;;;;;;;;;;;17.19;25.42;95915.81;10409881;28;1910;-55
2022/03/02 16:40:29;;;;;;;;;;;;;;;17.21;25.28;95911.13;10395732;28;1861;-54
2022/03/02 16:45:30;;;;;;;;;;;;;;;17.21;25.52;95918.19;10399453;28;1871;-53
2022/03/02 16:50:31;;;;;;;;;;;;;;;17.20;25.49;95908.75;10370641;28;1825;-52
2022/03/02 16:55:31;;;;;;;;;;;;;;;17.23;25.40;95909.03;10400108;28;1968;-53
2022/03/02 17:00:37;;;;;;;;;;;;;;;17.25;25.40;95927.16;10400385;28;1883;-53
2022/03/02 17:05:37;;;;;;;;;;;;;;;17.21;25.30;95928.69;10399011;28;1885;-55
2022/03/02 17:10:38;;;;;;;;;;;;;;;17.18;25.53;95932.59;10414568;28;1872;-56
2022/03/02 17:15:38;;;;;;;;;;;;;;;17.21;25.40;95934.69;10420624;28;2242;-56
2022/03/02 17:20:38;;;;;;;;;;;;;;;17.21;25.38;95939.94;10416737;28;2127;-54
2022/03/02 17:25:38;;;;;;;;;;;;;;;17.16;25.47;95945.13;10409775;28;1882;-54
2022/03/02 17:30:39;;;;;;;;;;;;;;;17.20;25.56;95950.66;10407139;28;1997;-54
2022/03/02 17:35:39;;;;;;;;;;;;;;;17.18;25.40;95945.69;10407018;28;1976;-55
2022/03/02 17:40:39;;;;;;;;;;;;;;;17.20;25.34;95951.47;10407780;28;1803;-54
2022/03/02 17:45:40;;;;;;;;;;;;;;;17.20;25.48;95940.97;10409002;28;1870;-55
2022/03/02 17:50:40;;;;;;;;;;;;;;;17.17;25.59;95930.97;10405191;28;1902;-54
2022/03/02 17:55:43;;;;;;;;;;;;;;;17.18;25.42;95932.59;10441567;22;1906;-72
2022/03/02 18:00:45;;;;;;;;;;;;;;;17.18;25.57;95932.59;10471991;22;1865;-46
2022/03/02 18:05:45;;;;;;;;;;;;;;;17.20;25.41;95930.50;10426472;28;1861;-43
2022/03/02 18:10:45;;;;;;;;;;;;;;;17.18;25.46;95932.59;10415114;28;1939;-46
2022/03/02 18:15:46;;;;;;;;;;;;;;;17.19;25.51;95928.13;10449276;28;1969;-46
2022/03/02 18:20:48;;;;;;;;;;;;;;;17.19;25.35;95922.91;10447793;28;1767;-43
2022/03/02 18:25:48;;;;;;;;;;;;;;;17.18;25.56;95916.06;10430070;28;1821;-45
2022/03/02 18:30:51;;;;;;;;;;;;;;;17.19;25.40;95915.81;10429420;28;1791;-44
2022/03/02 18:35:51;;;;;;;;;;;;;;;17.15;25.50;95912.09;10412495;28;1914;-39
2022/03/02 18:40:52;;;;;;;;;;;;;;;17.15;25.53;95906.88;10445170;28;1918;-44
2022/03/02 18:45:52;;;;;;;;;;;;;;;17.17;25.46;95891.69;10447568;28;1902;-46
2022/03/02 18:50:53;;;;;;;;;;;;;;;17.17;25.43;95898.75;10446049;28;1957;-43
2022/03/02 18:55:54;;;;;;;;;;;;;;;17.18;25.45;95895.91;10447470;28;1965;-42
2022/03/02 19:00:55;;;;;;;;;;;;;;;17.17;25.51;95896.94;10445710;28;1830;-44
2022/03/02 19:05:56;;;;;;;;;;;;;;;17.14;25.49;95894.81;10445761;28;1860;-46
2022/03/02 19:10:56;;;;;;;;;;;;;;;17.19;25.43;95907.19;10427204;28;1951;-46
2022/03/02 19:15:57;;;;;;;;;;;;;;;17.18;25.44;95901.16;10427955;28;2124;-44
2022/03/02 19:20:57;;;;;;;;;;;;;;;17.17;25.36;95902.16;10427052;28;1926;-47
2022/03/02 19:25:59;;;;;;;;;;;;;;;17.19;25.38;95896.72;10425888;28;1857;-46
2022/03/02 19:31:01;;;;;;;;;;;;;;;17.16;25.53;95886.72;10427719;28;1882;-43
2022/03/02 19:36:01;;;;;;;;;;;;;;;17.19;25.41;95889.63;10444055;28;1909;-46
2022/03/02 19:41:02;;;;;;;;;;;;;;;17.21;25.41;95889.38;10442530;28;2175;-42
2022/03/02 19:46:03;;;;;;;;;;;;;;;17.20;25.38;95888.59;10445961;28;2009;-43
2022/03/02 19:51:04;;;;;;;;;;;;;;;17.15;25.37;95880.69;10443568;28;1842;-44
2022/03/02 19:56:06;;;;;;;;;;;;;;;17.15;25.35;95875.44;10444211;28;1902;-42
2022/03/02 20:01:07;;;;;;;;;;;;;;;17.18;25.35;95871.53;10441347;28;1887;-44
2022/03/02 20:06:08;;;;;;;;;;;;;;;17.24;25.42;95870.53;10425485;28;1875;-44
2022/03/02 20:11:09;;;;;;;;;;;;;;;17.20;25.30;95878.13;10444143;28;2293;-40
2022/03/02 20:16:09;;;;;;;;;;;;;;;17.17;25.42;95867.31;10445656;28;1906;-43
2022/03/02 20:21:09;;;;;;;;;;;;;;;17.20;25.36;95867.63;10426165;28;1800;-42
2022/03/02 20:26:10;;;;;;;;;;;;;;;17.19;25.41;95866.03;10427745;28;1878;-42
2022/03/02 20:31:10;;;;;;;;;;;;;;;17.18;25.50;95861.06;10444811;28;1909;-42
2022/03/02 20:36:10;;;;;;;;;;;;;;;17.21;25.41;95861.34;10443848;28;1918;-45
2022/03/02 20:41:11;;;;;;;;;;;;;;;17.20;25.41;95864.22;10443706;28;1937;-47
2022/03/02 20:46:12;;;;;;;;;;;;;;;17.17;25.24;95865.50;10423099;28;1880;-47
2022/03/02 20:51:12;;;;;;;;;;;;;;;17.19;25.30;95873.13;10442721;28;1735;-47
2022/03/02 20:56:14;;;;;;;;;;;;;;;17.24;25.34;95873.16;10442786;28;1965;-44
2022/03/02 21:01:15;;;;;;;;;;;;;;;17.23;25.40;95869.75;10443735;28;1862;-42
2022/03/02 21:06:16;;;;;;;;;;;;;;;17.23;25.36;95877.59;10423509;28;1845;-42
2022/03/02 21:11:17;;;;;;;;;;;;;;;17.21;25.33;95884.16;10425764;28;1831;-43
2022/03/02 21:16:17;;;;;;;;;;;;;;;17.21;25.35;95882.28;10425668;28;1910;-44
2022/03/02 21:21:19;;;;;;;;;;;;;;;17.20;25.30;95883.34;10423221;28;2180;-42
2022/03/02 21:26:19;;;;;;;;;;;;;;;17.28;25.47;95889.97;10421054;28;1918;-43
2022/03/02 21:31:20;;;;;;;;;;;;;;;17.34;25.83;95889.75;10443280;28;1889;-43
2022/03/02 21:36:20;;;;;;;;;;;;;;;17.46;25.69;95889.59;10440696;28;1906;-45
2022/03/02 21:41:21;;;;;;;;;;;;;;;17.60;25.71;95893.38;10433408;28;1874;-43
2022/03/02 21:46:24;;;;;;;;;;;;;;;17.69;25.88;95886.66;10420934;28;2001;-42
2022/03/02 21:51:24;;;;;;;;;;;;;;;17.80;26.00;95880.44;10441470;28;1901;-42
2022/03/02 21:56:26;;;;;;;;;;;;;;;17.97;25.87;95882.91;10441057;28;1902;-48
2022/03/02 22:01:27;;;;;;;;;;;;;;;18.15;25.60;95874.63;10426248;28;1798;-41
2022/03/02 22:06:27;;;;;;;;;;;;;;;18.23;25.71;95876.75;10445346;28;1834;-44
2022/03/02 22:11:27;;;;;;;;;;;;;;;18.36;25.68;95878.91;10427595;28;1996;-43
2022/03/02 22:16:28;;;;;;;;;;;;;;;18.51;25.51;95868.50;10448570;28;1905;-42
2022/03/02 22:21:29;;;;;;;;;;;;;;;18.71;25.45;95873.03;10429764;28;1780;-43
2022/03/02 22:26:29;;;;;;;;;;;;;;;18.80;25.22;95881.97;10413892;28;1919;-41
2022/03/02 22:31:30;;;;;;;;;;;;;;;18.95;25.47;95872.31;10411351;28;1744;-46
2022/03/02 22:36:32;;;;;;;;;;;;;;;19.07;25.21;95872.84;10442669;28;1923;-45
2022/03/02 22:41:32;;;;;;;;;;;;;;;19.17;25.29;95862.34;10444114;28;1877;-42
2022/03/02 22:46:33;;;;;;;;;;;;;;;19.28;25.03;95869.19;10444582;28;1945;-42
2022/03/02 22:51:34;;;;;;;;;;;;;;;19.35;25.01;95861.09;10426054;28;1791;-47
2022/03/02 22:56:34;;;;;;;;;;;;;;;19.44;24.80;95857.66;10410418;28;1955;-45
2022/03/02 23:17:38;;;;;;;;;;;;;;;19.70;24.50;95831.34;10427746;28;1906;-41
2022/03/02 23:22:39;;;;;;;;;;;;;;;19.74;24.55;95830.53;10443576;28;1756;-45
2022/03/02 23:27:39;;;;;;;;;;;;;;;19.84;24.67;95842.91;10428045;28;1925;-43
2022/03/02 23:32:39;;;;;;;;;;;;;;;19.89;24.49;95835.78;10426509;28;1826;-48
2022/03/02 23:37:40;;;;;;;;;;;;;;;19.97;24.41;95832.59;10425717;28;1973;-49
2022/03/02 23:42:40;;;;;;;;;;;;;;;20.01;24.45;95832.88;10443214;28;1681;-49
2022/03/02 23:47:41;;;;;;;;;;;;;;;20.07;24.12;95834.44;10443522;28;1764;-47
2022/03/02 23:52:42;;;;;;;;;;;;;;;20.12;24.29;95829.94;10439848;28;1771;-44
2022/03/02 23:57:42;;;;;;;;;;;;;;;20.19;24.12;95827.00;10425570;28;1915;-46
